Time;durP1;ratioP1;P1;durP2;ratioP2;P2;SDS_P1;SDS_P2;PMS_P1;PMS_P2;Temp;Humidity;BMP_temperature;BMP_pressure;BME280_temperature;BME280_humidity;BME280_pressure;Samples;Min_cycle;Max_cycle;Signal;HPM_P1;HPM_P2
2023/04/10 00:01:00;;;;;;;5.78;4.45;;;;;;;;;;4964599;28;20047;-40
2023/04/10 00:03:26;;;;;;;5.72;4.55;;;;;;;;;;4968110;28;20161;-40
2023/04/10 00:05:53;;;;;;;6.95;4.60;;;;;;;;;;4965523;28;20537;-40
2023/04/10 00:08:20;;;;;;;4.85;4.00;;;;;;;;;;4967473;28;20049;-39
2023/04/10 00:10:45;;;;;;;4.90;4.13;;;;;;;;;;4966643;28;20063;-40
2023/04/10 00:13:11;;;;;;;6.97;4.57;;;;;;;;;;4965214;28;20054;-40
2023/04/10 00:15:36;;;;;;;6.47;4.22;;;;;;;;;;4966017;28;20035;-39
2023/04/10 00:18:02;;;;;;;8.38;4.70;;;;;;;;;;4965946;28;20043;-39
2023/04/10 00:20:27;;;;;;;4.65;4.25;;;;;;;;;;4965530;28;20075;-40
2023/04/10 00:22:53;;;;;;;4.88;3.92;;;;;;;;;;4962878;28;20033;-39
2023/04/10 00:25:19;;;;;;;8.05;4.55;;;;;;;;;;4965409;28;20026;-40
2023/04/10 00:27:44;;;;;;;7.70;3.97;;;;;;;;;;4967367;28;20031;-40
2023/04/10 00:30:10;;;;;;;6.20;4.18;;;;;;;;;;4966057;28;20039;-39
2023/04/10 00:32:35;;;;;;;9.98;3.78;;;;;;;;;;4963174;28;20054;-40
2023/04/10 00:35:02;;;;;;;8.23;4.22;;;;;;;;;;4964293;28;20062;-40
2023/04/10 00:37:27;;;;;;;7.18;3.95;;;;;;;;;;4966158;28;21352;-39
2023/04/10 00:39:52;;;;;;;6.57;4.10;;;;;;;;;;4966490;28;20039;-39
2023/04/10 00:42:18;;;;;;;6.25;4.47;;;;;;;;;;4966925;28;20039;-40
2023/04/10 00:44:43;;;;;;;7.95;3.38;;;;;;;;;;4964791;28;20098;-39
2023/04/10 00:47:09;;;;;;;4.30;3.90;;;;;;;;;;4965923;28;20043;-40
2023/04/10 00:49:35;;;;;;;5.72;4.20;;;;;;;;;;4964636;28;20030;-40
2023/04/10 00:52:00;;;;;;;8.10;4.63;;;;;;;;;;4963945;28;20129;-40
2023/04/10 00:54:25;;;;;;;4.75;3.65;;;;;;;;;;4965298;28;20043;-40
2023/04/10 00:56:51;;;;;;;8.85;4.00;;;;;;;;;;4963788;28;20484;-39
2023/04/10 00:59:17;;;;;;;8.65;4.68;;;;;;;;;;4965830;28;20046;-40
2023/04/10 01:01:42;;;;;;;6.03;3.67;;;;;;;;;;4966165;28;20150;-40
2023/04/10 01:04:09;;;;;;;6.43;4.68;;;;;;;;;;4966832;28;20988;-39
2023/04/10 01:06:49;;;;;;;6.53;4.40;;;;;;;;;;4966414;28;20133;-39
2023/04/10 01:09:27;;;;;;;5.28;3.55;;;;;;;;;;4966988;28;20031;-39
2023/04/10 01:11:59;;;;;;;6.15;4.05;;;;;;;;;;4962241;28;20562;-40
2023/04/10 01:14:30;;;;;;;5.70;5.00;;;;;;;;;;4961065;28;20089;-40
2023/04/10 01:16:57;;;;;;;5.30;4.27;;;;;;;;;;4965155;28;20134;-40
2023/04/10 01:19:37;;;;;;;7.97;4.90;;;;;;;;;;4965597;28;20487;-40
2023/04/10 01:22:09;;;;;;;5.75;4.47;;;;;;;;;;4945088;28;20059;-39
2023/04/10 01:25:00;;;;;;;5.97;4.47;;;;;;;;;;4947751;28;20030;-40
2023/04/10 01:27:41;;;;;;;4.72;3.92;;;;;;;;;;4964515;28;20057;-39
2023/04/10 01:30:11;;;;;;;8.48;5.95;;;;;;;;;;4966106;28;20027;-39
2023/04/10 01:32:39;;;;;;;8.63;5.65;;;;;;;;;;4964035;28;20035;-40
2023/04/10 01:35:07;;;;;;;8.38;5.47;;;;;;;;;;4966700;28;20023;-39
2023/04/10 01:37:39;;;;;;;9.70;4.97;;;;;;;;;;4967365;28;20121;-39
2023/04/10 01:40:08;;;;;;;9.90;6.30;;;;;;;;;;4962657;28;20038;-39
2023/04/10 01:42:39;;;;;;;6.82;5.38;;;;;;;;;;4965011;28;20078;-40
2023/04/10 01:45:07;;;;;;;8.30;4.88;;;;;;;;;;4960933;28;20484;-39
2023/04/10 01:47:33;;;;;;;9.55;6.10;;;;;;;;;;4966391;28;20050;-41
2023/04/10 01:50:00;;;;;;;9.32;6.50;;;;;;;;;;4965790;28;20039;-40
2023/04/10 01:52:27;;;;;;;9.75;6.05;;;;;;;;;;4964805;28;20147;-40
2023/04/10 01:54:53;;;;;;;5.97;5.25;;;;;;;;;;4965177;28;20109;-40
2023/04/10 01:57:19;;;;;;;7.40;5.82;;;;;;;;;;4965272;28;20042;-40
2023/04/10 01:59:45;;;;;;;9.80;7.75;;;;;;;;;;4965771;28;20042;-40
2023/04/10 02:02:11;;;;;;;8.00;7.03;;;;;;;;;;4965316;28;20503;-40
2023/04/10 02:04:37;;;;;;;5.75;5.15;;;;;;;;;;4964757;28;20026;-40
2023/04/10 02:07:06;;;;;;;6.90;4.63;;;;;;;;;;4966238;28;20046;-39
2023/04/10 02:09:56;;;;;;;5.10;4.25;;;;;;;;;;4963530;28;20086;-40
2023/04/10 02:12:38;;;;;;;6.45;4.47;;;;;;;;;;4964524;28;20077;-40
2023/04/10 02:15:07;;;;;;;8.23;4.93;;;;;;;;;;4966614;28;20030;-39
2023/04/10 02:17:35;;;;;;;8.77;5.18;;;;;;;;;;4964219;28;20027;-40
2023/04/10 02:20:01;;;;;;;6.40;5.30;;;;;;;;;;4965132;28;20461;-40
2023/04/10 02:22:27;;;;;;;8.68;4.72;;;;;;;;;;4966728;28;20053;-39
2023/04/10 02:24:53;;;;;;;8.98;4.47;;;;;;;;;;4961628;28;20399;-39
2023/04/10 02:27:30;;;;;;;5.03;4.45;;;;;;;;;;4963401;28;20062;-40
2023/04/10 02:29:55;;;;;;;6.88;4.53;;;;;;;;;;4962693;28;20077;-40
2023/04/10 02:32:21;;;;;;;6.00;4.40;;;;;;;;;;4964138;28;20051;-39
2023/04/10 02:34:47;;;;;;;8.20;4.82;;;;;;;;;;4964903;28;20023;-40
2023/04/10 02:37:12;;;;;;;5.88;4.05;;;;;;;;;;4960776;28;20094;-39
2023/04/10 02:39:38;;;;;;;7.53;4.85;;;;;;;;;;4964062;28;20031;-40
2023/04/10 02:42:03;;;;;;;8.63;4.40;;;;;;;;;;4963931;28;20488;-40
2023/04/10 02:44:29;;;;;;;8.98;4.88;;;;;;;;;;4965179;28;20027;-39
2023/04/10 02:46:55;;;;;;;7.65;4.80;;;;;;;;;;4965406;28;20059;-39
2023/04/10 02:49:20;;;;;;;7.97;4.30;;;;;;;;;;4960925;28;20070;-40
2023/04/10 02:51:45;;;;;;;6.57;4.78;;;;;;;;;;4965482;28;20039;-40
2023/04/10 02:54:11;;;;;;;6.13;4.60;;;;;;;;;;4964705;28;20042;-40
2023/04/10 02:56:36;;;;;;;6.30;4.43;;;;;;;;;;4964196;28;20050;-40
2023/04/10 02:59:02;;;;;;;6.25;4.22;;;;;;;;;;4965536;28;20114;-40
2023/04/10 03:01:27;;;;;;;4.72;4.30;;;;;;;;;;4968275;28;20046;-40
2023/04/10 03:03:53;;;;;;;5.32;4.32;;;;;;;;;;4962701;28;20121;-40
2023/04/10 03:06:18;;;;;;;5.43;4.28;;;;;;;;;;4963148;28;20090;-40
2023/04/10 03:08:43;;;;;;;7.13;4.35;;;;;;;;;;4959763;28;20026;-40
2023/04/10 03:11:09;;;;;;;5.70;4.25;;;;;;;;;;4968016;28;20058;-40
2023/04/10 03:13:34;;;;;;;5.32;3.92;;;;;;;;;;4968255;28;20054;-40
2023/04/10 03:16:00;;;;;;;5.65;4.05;;;;;;;;;;4966165;28;20054;-40
2023/04/10 03:18:25;;;;;;;5.28;3.90;;;;;;;;;;4967285;28;20045;-39
2023/04/10 03:20:51;;;;;;;9.57;4.13;;;;;;;;;;4968904;28;20043;-39
2023/04/10 03:23:16;;;;;;;10.15;4.47;;;;;;;;;;4966955;28;20974;-40
2023/04/10 03:25:42;;;;;;;6.40;4.35;;;;;;;;;;4967542;28;20050;-39
2023/04/10 03:28:07;;;;;;;7.70;4.07;;;;;;;;;;4968812;28;20050;-39
2023/04/10 03:30:35;;;;;;;5.78;4.40;;;;;;;;;;4963680;28;20130;-40
2023/04/10 03:33:01;;;;;;;5.30;3.80;;;;;;;;;;4946329;28;20055;-39
2023/04/10 03:35:26;;;;;;;5.03;3.65;;;;;;;;;;4950021;28;20073;-39
2023/04/10 03:37:52;;;;;;;3.17;2.97;;;;;;;;;;4965165;28;20141;-39
2023/04/10 03:40:17;;;;;;;4.07;3.67;;;;;;;;;;4965256;28;20475;-39
2023/04/10 03:42:42;;;;;;;4.38;3.38;;;;;;;;;;4966345;28;20026;-40
2023/04/10 03:45:08;;;;;;;6.85;3.83;;;;;;;;;;4968168;28;20057;-39
2023/04/10 03:47:34;;;;;;;3.25;2.95;;;;;;;;;;4969348;28;20643;-39
2023/04/10 03:49:59;;;;;;;4.18;3.40;;;;;;;;;;4966415;28;20127;-40
2023/04/10 03:52:26;;;;;;;6.65;3.53;;;;;;;;;;4967056;28;20049;-39
2023/04/10 03:54:52;;;;;;;3.25;2.97;;;;;;;;;;4967883;28;20031;-39
2023/04/10 03:57:19;;;;;;;3.72;3.15;;;;;;;;;;4964802;28;20531;-40
2023/04/10 03:59:45;;;;;;;3.03;2.83;;;;;;;;;;4965336;28;20045;-39
2023/04/10 04:02:11;;;;;;;4.60;3.05;;;;;;;;;;4966651;28;20492;-39
2023/04/10 04:04:36;;;;;;;3.83;2.80;;;;;;;;;;4965677;28;20068;-40
2023/04/10 04:07:02;;;;;;;6.00;3.25;;;;;;;;;;4965081;28;20043;-41
2023/04/10 04:09:27;;;;;;;5.57;3.28;;;;;;;;;;4967110;28;20464;-40
2023/04/10 04:11:52;;;;;;;4.25;2.88;;;;;;;;;;4966013;28;20392;-40
2023/04/10 04:14:18;;;;;;;5.15;3.00;;;;;;;;;;4968422;28;20034;-40
2023/04/10 04:16:43;;;;;;;3.42;3.10;;;;;;;;;;4965504;28;20447;-40
2023/04/10 04:19:08;;;;;;;3.03;2.78;;;;;;;;;;4965713;28;20031;-40
2023/04/10 04:21:34;;;;;;;4.10;2.97;;;;;;;;;;4967011;28;20076;-39
2023/04/10 04:24:00;;;;;;;4.18;3.10;;;;;;;;;;4968001;28;20034;-40
2023/04/10 04:26:25;;;;;;;4.00;2.85;;;;;;;;;;4968190;28;20035;-40
2023/04/10 04:28:51;;;;;;;3.63;2.85;;;;;;;;;;4964733;28;20027;-40
2023/04/10 04:31:16;;;;;;;3.63;3.10;;;;;;;;;;4964861;28;20073;-40
2023/04/10 04:33:42;;;;;;;5.57;2.70;;;;;;;;;;4966800;28;20030;-40
2023/04/10 04:36:07;;;;;;;3.55;2.70;;;;;;;;;;4964262;28;20439;-40
2023/04/10 04:38:33;;;;;;;8.88;2.80;;;;;;;;;;4965427;28;20031;-39
2023/04/10 04:40:58;;;;;;;5.15;3.13;;;;;;;;;;4967063;28;20515;-40
2023/04/10 04:43:23;;;;;;;3.90;3.10;;;;;;;;;;4968424;28;20030;-39
2023/04/10 04:45:49;;;;;;;8.63;2.88;;;;;;;;;;4963840;28;20436;-39
2023/04/10 04:48:14;;;;;;;4.53;2.50;;;;;;;;;;4964693;28;20379;-39
2023/04/10 04:50:40;;;;;;;4.78;2.92;;;;;;;;;;4964762;28;20446;-39
2023/04/10 04:53:06;;;;;;;3.63;2.78;;;;;;;;;;4965064;28;20045;-40
2023/04/10 04:55:32;;;;;;;3.05;2.65;;;;;;;;;;4965259;28;20403;-40
2023/04/10 04:57:57;;;;;;;4.95;2.70;;;;;;;;;;4967876;28;20065;-40
2023/04/10 05:00:22;;;;;;;10.02;2.55;;;;;;;;;;4966457;28;20122;-40
2023/04/10 05:02:48;;;;;;;5.30;2.50;;;;;;;;;;4967247;28;20038;-40
2023/04/10 05:05:13;;;;;;;2.45;2.25;;;;;;;;;;4963251;28;20197;-40
2023/04/10 05:07:39;;;;;;;2.53;2.30;;;;;;;;;;4967275;28;20046;-40
2023/04/10 05:10:05;;;;;;;3.92;2.10;;;;;;;;;;4966361;28;20051;-39
2023/04/10 05:12:30;;;;;;;3.00;2.30;;;;;;;;;;4965820;28;20070;-40
2023/04/10 05:14:56;;;;;;;3.13;2.28;;;;;;;;;;4966409;28;20495;-40
2023/04/10 05:17:21;;;;;;;8.20;2.20;;;;;;;;;;4964005;28;20034;-39
2023/04/10 05:19:47;;;;;;;6.60;2.15;;;;;;;;;;4963892;28;20101;-40
2023/04/10 05:22:12;;;;;;;4.25;2.10;;;;;;;;;;4966505;28;20484;-39
2023/04/10 05:24:37;;;;;;;5.63;2.25;;;;;;;;;;4966589;28;20029;-39
2023/04/10 05:27:03;;;;;;;3.90;2.53;;;;;;;;;;4964278;28;20042;-39
2023/04/10 05:29:28;;;;;;;3.30;2.30;;;;;;;;;;4964835;28;20034;-40
2023/04/10 05:31:53;;;;;;;3.97;2.40;;;;;;;;;;4966453;28;20039;-39
2023/04/10 05:34:19;;;;;;;4.57;2.50;;;;;;;;;;4965010;28;20034;-40
2023/04/10 05:36:44;;;;;;;3.13;2.33;;;;;;;;;;4960858;28;20480;-39
2023/04/10 05:39:09;;;;;;;3.97;2.20;;;;;;;;;;4964616;28;20129;-39
2023/04/10 05:41:35;;;;;;;2.25;2.13;;;;;;;;;;4965031;28;20031;-39
2023/04/10 05:44:00;;;;;;;10.02;2.30;;;;;;;;;;4963623;28;20035;-39
2023/04/10 05:46:25;;;;;;;2.00;1.80;;;;;;;;;;4966375;28;20066;-39
2023/04/10 05:48:51;;;;;;;3.20;2.40;;;;;;;;;;4963561;28;20423;-40
2023/04/10 05:51:17;;;;;;;3.58;2.10;;;;;;;;;;4962578;28;20118;-40
2023/04/10 05:53:42;;;;;;;2.33;2.13;;;;;;;;;;4962994;28;20043;-40
2023/04/10 05:56:08;;;;;;;2.70;2.10;;;;;;;;;;4962437;28;20085;-40
2023/04/10 05:58:33;;;;;;;2.58;2.20;;;;;;;;;;4961182;28;20027;-39
2023/04/10 06:00:58;;;;;;;2.85;1.98;;;;;;;;;;4961735;28;20093;-39
2023/04/10 06:03:26;;;;;;;2.20;2.00;;;;;;;;;;4967329;28;20097;-40
2023/04/10 06:05:52;;;;;;;2.28;2.17;;;;;;;;;;4963916;28;20062;-39
2023/04/10 06:08:18;;;;;;;2.92;1.88;;;;;;;;;;4964695;28;20027;-40
2023/04/10 06:10:45;;;;;;;2.42;2.10;;;;;;;;;;4963858;28;20078;-39
2023/04/10 06:13:10;;;;;;;1.88;1.77;;;;;;;;;;4964572;28;20022;-40
2023/04/10 06:15:36;;;;;;;4.47;2.15;;;;;;;;;;4964447;28;20039;-39
2023/04/10 06:18:01;;;;;;;2.40;2.20;;;;;;;;;;4963357;28;20029;-40
2023/04/10 06:20:26;;;;;;;2.40;2.20;;;;;;;;;;4965120;28;20046;-39
2023/04/10 06:22:52;;;;;;;5.68;1.92;;;;;;;;;;4966533;28;20030;-39
2023/04/10 06:25:18;;;;;;;4.68;1.98;;;;;;;;;;4960483;28;20061;-39
2023/04/10 06:27:43;;;;;;;2.45;1.95;;;;;;;;;;4964670;28;20041;-39
2023/04/10 06:30:10;;;;;;;7.03;1.88;;;;;;;;;;4960069;28;20546;-39
2023/04/10 06:32:35;;;;;;;2.58;2.05;;;;;;;;;;4964211;28;20031;-40
2023/04/10 06:35:01;;;;;;;2.70;1.90;;;;;;;;;;4962010;28;20514;-40
2023/04/10 06:37:31;;;;;;;1.73;1.63;;;;;;;;;;4962922;28;20574;-40
2023/04/10 06:40:08;;;;;;;2.20;2.03;;;;;;;;;;4961454;28;20141;-39
2023/04/10 06:42:34;;;;;;;5.57;2.25;;;;;;;;;;4963861;28;20101;-39
2023/04/10 06:44:59;;;;;;;2.05;1.75;;;;;;;;;;4964226;28;20027;-39
2023/04/10 06:47:25;;;;;;;2.80;1.92;;;;;;;;;;4969370;28;20105;-39
2023/04/10 06:49:50;;;;;;;6.53;2.83;;;;;;;;;;4967771;28;20123;-40
2023/04/10 06:52:16;;;;;;;4.65;2.08;;;;;;;;;;4968640;28;20039;-40
2023/04/10 06:54:42;;;;;;;3.58;2.13;;;;;;;;;;4962682;28;20022;-40
2023/04/10 06:57:07;;;;;;;2.70;2.25;;;;;;;;;;4968873;28;20049;-39
2023/04/10 06:59:33;;;;;;;2.05;1.85;;;;;;;;;;4969739;28;20035;-40
2023/04/10 07:01:59;;;;;;;3.78;2.20;;;;;;;;;;4968679;28;20035;-40
2023/04/10 07:04:24;;;;;;;1.95;1.83;;;;;;;;;;4967977;28;20041;-40
2023/04/10 07:06:49;;;;;;;3.28;1.70;;;;;;;;;;4951191;28;20047;-39
2023/04/10 07:09:15;;;;;;;5.70;1.77;;;;;;;;;;4948395;28;20063;-40
2023/04/10 07:11:40;;;;;;;6.88;2.30;;;;;;;;;;4943974;28;20130;-40
2023/04/10 07:14:05;;;;;;;3.30;2.30;;;;;;;;;;4950568;28;20035;-40
2023/04/10 07:16:31;;;;;;;12.98;2.05;;;;;;;;;;4954416;28;20110;-40
2023/04/10 07:18:56;;;;;;;4.82;1.83;;;;;;;;;;4966036;28;20427;-40
2023/04/10 07:21:22;;;;;;;3.80;2.22;;;;;;;;;;4966837;28;20046;-40
2023/04/10 07:23:48;;;;;;;6.07;2.05;;;;;;;;;;4968768;28;20494;-40
2023/04/10 07:26:14;;;;;;;1.92;1.73;;;;;;;;;;4964516;28;20043;-40
2023/04/10 07:28:39;;;;;;;2.10;1.90;;;;;;;;;;4967602;28;20505;-39
2023/04/10 07:31:06;;;;;;;5.53;1.90;;;;;;;;;;4961469;28;20035;-40
2023/04/10 07:33:32;;;;;;;1.85;1.73;;;;;;;;;;4967558;28;20038;-40
2023/04/10 07:35:57;;;;;;;2.90;1.98;;;;;;;;;;4965236;28;20047;-39
2023/04/10 07:38:24;;;;;;;2.50;2.10;;;;;;;;;;4961291;28;20034;-40
2023/04/10 07:40:55;;;;;;;4.68;2.30;;;;;;;;;;4957785;28;20139;-40
2023/04/10 07:43:20;;;;;;;3.45;1.70;;;;;;;;;;4947240;28;20038;-40
2023/04/10 07:45:46;;;;;;;3.30;1.80;;;;;;;;;;4953222;28;20038;-39
2023/04/10 07:48:12;;;;;;;2.10;1.90;;;;;;;;;;4966717;28;20030;-39
2023/04/10 07:50:37;;;;;;;2.90;1.98;;;;;;;;;;4963000;28;20039;-39
2023/04/10 07:53:06;;;;;;;1.70;1.60;;;;;;;;;;4963529;28;20470;-40
2023/04/10 07:55:40;;;;;;;2.85;2.10;;;;;;;;;;4970070;28;20039;-39
2023/04/10 07:58:06;;;;;;;2.50;1.80;;;;;;;;;;4965820;28;20054;-39
2023/04/10 08:00:32;;;;;;;3.38;1.90;;;;;;;;;;4965177;28;20066;-40
2023/04/10 08:02:57;;;;;;;5.60;1.60;;;;;;;;;;4964297;28;20110;-39
2023/04/10 08:05:23;;;;;;;2.63;1.90;;;;;;;;;;4967811;28;20142;-40
2023/04/10 08:07:49;;;;;;;2.05;1.80;;;;;;;;;;4965432;28;20039;-40
2023/04/10 08:10:14;;;;;;;2.78;1.98;;;;;;;;;;4965851;28;20052;-39
2023/04/10 08:12:40;;;;;;;2.88;1.63;;;;;;;;;;4967412;28;20027;-39
2023/04/10 08:15:07;;;;;;;3.10;2.05;;;;;;;;;;4960107;28;20025;-41
2023/04/10 08:17:32;;;;;;;2.45;2.20;;;;;;;;;;4964981;28;20022;-39
2023/04/10 08:19:58;;;;;;;2.75;1.98;;;;;;;;;;4966195;28;20090;-40
2023/04/10 08:22:23;;;;;;;2.95;2.13;;;;;;;;;;4966815;28;20043;-40
2023/04/10 08:24:49;;;;;;;2.78;2.05;;;;;;;;;;4967581;28;20652;-39
2023/04/10 08:27:15;;;;;;;2.58;2.30;;;;;;;;;;4962979;28;20038;-39
2023/04/10 08:29:41;;;;;;;6.03;2.63;;;;;;;;;;4960765;28;20034;-42
2023/04/10 08:32:06;;;;;;;3.42;2.30;;;;;;;;;;4965637;28;20051;-40
2023/04/10 08:34:32;;;;;;;4.57;2.22;;;;;;;;;;4963575;28;20038;-40
2023/04/10 08:36:57;;;;;;;4.40;2.67;;;;;;;;;;4962922;28;20487;-40
2023/04/10 08:39:23;;;;;;;6.85;2.90;;;;;;;;;;4958674;28;20062;-40
2023/04/10 08:41:48;;;;;;;2.58;2.30;;;;;;;;;;4955696;28;21049;-40
2023/04/10 08:44:14;;;;;;;4.78;2.15;;;;;;;;;;4961285;28;20518;-39
2023/04/10 08:46:42;;;;;;;3.15;1.92;;;;;;;;;;4959993;28;20471;-39
2023/04/10 08:49:10;;;;;;;2.13;1.98;;;;;;;;;;4963261;28;20126;-40
2023/04/10 08:51:37;;;;;;;2.97;2.30;;;;;;;;;;4961520;28;20043;-40
2023/04/10 08:54:10;;;;;;;4.30;2.28;;;;;;;;;;4962834;28;20035;-40
2023/04/10 08:56:38;;;;;;;6.70;2.30;;;;;;;;;;4965410;28;20050;-40
2023/04/10 08:59:04;;;;;;;3.72;2.40;;;;;;;;;;4965570;28;20035;-40
2023/04/10 09:01:30;;;;;;;6.10;2.10;;;;;;;;;;4967963;28;20507;-39
2023/04/10 09:03:56;;;;;;;6.35;2.00;;;;;;;;;;4961989;28;20038;-40
2023/04/10 09:06:21;;;;;;;6.30;1.83;;;;;;;;;;4962978;28;20043;-39
2023/04/10 09:08:47;;;;;;;4.85;2.33;;;;;;;;;;4964773;28;20023;-40
2023/04/10 09:11:13;;;;;;;2.90;1.90;;;;;;;;;;4965798;28;20039;-40
2023/04/10 09:13:42;;;;;;;2.33;1.70;;;;;;;;;;4965929;28;20048;-40
2023/04/10 09:16:09;;;;;;;3.20;2.10;;;;;;;;;;4963027;28;20138;-39
2023/04/10 09:18:46;;;;;;;3.67;1.98;;;;;;;;;;4962999;28;20042;-40
2023/04/10 09:21:18;;;;;;;8.63;1.98;;;;;;;;;;4960830;28;20484;-39
2023/04/10 09:23:46;;;;;;;6.60;2.90;;;;;;;;;;4964767;28;20429;-39
2023/04/10 09:26:27;;;;;;;3.80;2.22;;;;;;;;;;4958799;28;20035;-39
2023/04/10 09:29:04;;;;;;;5.50;2.20;;;;;;;;;;4961256;28;20039;-40
2023/04/10 09:31:32;;;;;;;3.00;2.63;;;;;;;;;;4959181;28;20050;-39
2023/04/10 09:34:21;;;;;;;7.63;2.42;;;;;;;;;;4962048;28;20030;-39
2023/04/10 09:36:55;;;;;;;4.55;2.15;;;;;;;;;;4961849;28;20087;-39
2023/04/10 09:39:21;;;;;;;3.55;2.03;;;;;;;;;;4960883;28;20029;-40
2023/04/10 09:41:56;;;;;;;4.93;1.95;;;;;;;;;;4961030;28;20051;-40
2023/04/10 09:44:28;;;;;;;2.95;2.22;;;;;;;;;;4961998;28;20033;-40
2023/04/10 09:46:54;;;;;;;12.13;2.20;;;;;;;;;;4962921;28;20132;-39
2023/04/10 09:49:19;;;;;;;2.58;1.73;;;;;;;;;;4962273;28;20027;-39
2023/04/10 09:51:46;;;;;;;8.55;1.85;;;;;;;;;;4964158;28;20483;-39
2023/04/10 09:54:11;;;;;;;3.60;2.05;;;;;;;;;;4968502;28;20031;-39
2023/04/10 09:56:38;;;;;;;4.78;1.95;;;;;;;;;;4957152;28;20046;-40
2023/04/10 09:59:05;;;;;;;5.80;2.10;;;;;;;;;;4961245;28;20082;-40
2023/04/10 10:01:33;;;;;;;5.32;2.03;;;;;;;;;;4964398;28;20105;-39
2023/04/10 10:04:03;;;;;;;4.20;1.70;;;;;;;;;;4963061;28;20034;-40
2023/04/10 10:06:32;;;;;;;3.90;2.00;;;;;;;;;;4958971;28;20046;-39
2023/04/10 10:09:02;;;;;;;8.00;2.00;;;;;;;;;;4960589;28;20054;-41
2023/04/10 10:11:31;;;;;;;2.22;1.98;;;;;;;;;;4961792;28;20566;-40
2023/04/10 10:13:59;;;;;;;2.88;1.90;;;;;;;;;;4963895;28;20031;-40
2023/04/10 10:16:44;;;;;;;5.47;2.03;;;;;;;;;;4965189;28;20046;-39
2023/04/10 10:19:38;;;;;;;1.80;1.60;;;;;;;;;;4960684;28;20530;-40
2023/04/10 10:22:04;;;;;;;2.67;1.40;;;;;;;;;;4957524;28;20043;-40
2023/04/10 10:24:31;;;;;;;2.45;2.10;;;;;;;;;;4961442;28;21610;-40
2023/04/10 10:26:58;;;;;;;3.22;1.83;;;;;;;;;;4959095;28;20058;-40
2023/04/10 10:29:24;;;;;;;2.63;1.48;;;;;;;;;;4958559;28;20533;-40
2023/04/10 10:31:51;;;;;;;4.93;1.90;;;;;;;;;;4958904;28;20054;-40
2023/04/10 10:34:17;;;;;;;4.45;2.35;;;;;;;;;;4961783;28;20035;-41
2023/04/10 10:36:43;;;;;;;3.42;1.95;;;;;;;;;;4964105;28;20368;-41
2023/04/10 10:39:21;;;;;;;5.85;2.30;;;;;;;;;;4960228;28;20027;-41
2023/04/10 10:42:13;;;;;;;1.95;1.83;;;;;;;;;;4963690;28;20043;-40
2023/04/10 10:45:07;;;;;;;3.47;2.43;;;;;;;;;;4964848;28;20086;-40
2023/04/10 10:47:37;;;;;;;4.10;2.20;;;;;;;;;;4963262;28;20063;-40
2023/04/10 10:50:03;;;;;;;1.90;1.70;;;;;;;;;;4962738;28;20387;-39
2023/04/10 10:52:52;;;;;;;4.75;2.42;;;;;;;;;;4962313;28;20031;-40
2023/04/10 10:55:33;;;;;;;5.40;2.00;;;;;;;;;;4966797;28;20050;-40
2023/04/10 10:58:10;;;;;;;3.45;2.28;;;;;;;;;;4958738;28;20144;-40
2023/04/10 11:00:50;;;;;;;3.30;1.95;;;;;;;;;;4961997;28;20760;-40
2023/04/10 11:03:15;;;;;;;3.58;2.20;;;;;;;;;;4961225;28;20038;-40
2023/04/10 11:06:01;;;;;;;6.88;3.22;;;;;;;;;;4965240;28;20070;-40
2023/04/10 11:08:35;;;;;;;3.72;1.70;;;;;;;;;;4961853;28;20510;-40
2023/04/10 11:11:06;;;;;;;4.35;1.75;;;;;;;;;;4961957;28;20046;-40
2023/04/10 11:13:32;;;;;;;3.63;2.10;;;;;;;;;;4964184;28;20034;-40
2023/04/10 11:15:59;;;;;;;4.50;1.88;;;;;;;;;;4961376;28;20065;-40
2023/04/10 11:18:46;;;;;;;3.50;1.80;;;;;;;;;;4965283;28;20514;-40
2023/04/10 11:21:19;;;;;;;4.55;2.30;;;;;;;;;;4951817;28;20051;-41
2023/04/10 11:24:05;;;;;;;2.47;1.70;;;;;;;;;;4942393;28;20106;-40
2023/04/10 11:26:42;;;;;;;3.60;1.80;;;;;;;;;;4956180;28;20043;-40
2023/04/10 11:29:16;;;;;;;5.20;2.13;;;;;;;;;;4963052;28;20081;-40
2023/04/10 11:31:46;;;;;;;6.13;1.80;;;;;;;;;;4963372;28;20402;-40
2023/04/10 11:34:14;;;;;;;5.20;2.17;;;;;;;;;;4968144;28;20109;-41
2023/04/10 11:36:43;;;;;;;3.83;1.60;;;;;;;;;;4967338;28;20031;-41
2023/04/10 11:39:16;;;;;;;4.32;1.83;;;;;;;;;;4967983;28;20035;-40
2023/04/10 11:41:43;;;;;;;3.00;1.58;;;;;;;;;;4967338;28;20055;-40
2023/04/10 11:44:12;;;;;;;5.85;1.83;;;;;;;;;;4968168;28;20131;-40
2023/04/10 11:46:40;;;;;;;4.35;2.42;;;;;;;;;;4968526;28;20090;-40
2023/04/10 11:49:08;;;;;;;9.05;2.08;;;;;;;;;;4967851;28;20035;-41
2023/04/10 11:51:35;;;;;;;3.67;1.77;;;;;;;;;;4969261;28;20514;-40
2023/04/10 11:54:10;;;;;;;6.63;1.80;;;;;;;;;;4965515;28;20123;-40
2023/04/10 11:56:38;;;;;;;3.05;2.10;;;;;;;;;;4965381;28;20039;-40
2023/04/10 11:59:06;;;;;;;2.22;1.63;;;;;;;;;;4962704;28;20153;-40
2023/04/10 12:01:33;;;;;;;3.10;2.13;;;;;;;;;;4965299;28;20038;-40
2023/04/10 12:03:59;;;;;;;5.55;1.52;;;;;;;;;;4968136;28;20925;-40
2023/04/10 12:06:26;;;;;;;4.65;1.83;;;;;;;;;;4969512;28;20554;-40
2023/04/10 12:08:51;;;;;;;4.60;1.70;;;;;;;;;;4967718;28;20041;-40
2023/04/10 12:11:23;;;;;;;4.85;2.50;;;;;;;;;;4964813;28;20129;-40
2023/04/10 12:13:56;;;;;;;3.33;1.90;;;;;;;;;;4967232;28;20707;-40
2023/04/10 12:16:22;;;;;;;2.97;2.00;;;;;;;;;;4967234;28;20555;-44
2023/04/10 12:18:48;;;;;;;6.72;1.65;;;;;;;;;;4962685;28;20027;-40
2023/04/10 12:21:14;;;;;;;7.20;1.73;;;;;;;;;;4966730;28;20034;-40
2023/04/10 12:23:41;;;;;;;4.07;1.63;;;;;;;;;;4967260;28;20113;-40
2023/04/10 12:26:08;;;;;;;4.72;1.70;;;;;;;;;;4961976;28;20054;-41
2023/04/10 12:28:36;;;;;;;6.60;1.65;;;;;;;;;;4966874;28;20611;-41
2023/04/10 12:31:02;;;;;;;2.42;1.60;;;;;;;;;;4961291;28;20047;-40
2023/04/10 12:33:27;;;;;;;3.65;1.83;;;;;;;;;;4970622;28;20037;-41
2023/04/10 12:35:53;;;;;;;5.15;1.70;;;;;;;;;;4967233;28;20403;-41
2023/04/10 12:38:42;;;;;;;3.60;1.63;;;;;;;;;;4965784;28;20693;-40
2023/04/10 12:41:10;;;;;;;4.10;1.75;;;;;;;;;;4965102;28;20126;-40
2023/04/10 12:43:40;;;;;;;6.30;1.60;;;;;;;;;;4968303;28;20046;-40
2023/04/10 12:46:07;;;;;;;3.60;1.80;;;;;;;;;;4965950;28;20043;-42
2023/04/10 12:48:32;;;;;;;3.17;1.65;;;;;;;;;;4969296;28;20675;-40
2023/04/10 12:50:59;;;;;;;5.53;1.80;;;;;;;;;;4966916;28;20052;-41
2023/04/10 12:53:26;;;;;;;1.80;1.52;;;;;;;;;;4964101;28;20114;-41
2023/04/10 12:56:03;;;;;;;10.07;1.90;;;;;;;;;;4967306;28;20074;-41
2023/04/10 12:58:32;;;;;;;4.32;1.85;;;;;;;;;;4964775;28;20041;-41
2023/04/10 13:01:02;;;;;;;6.72;1.73;;;;;;;;;;4966009;28;20035;-40
2023/04/10 13:03:28;;;;;;;3.10;1.80;;;;;;;;;;4967775;28;20122;-40
2023/04/10 13:05:54;;;;;;;3.40;1.42;;;;;;;;;;4966100;28;20181;-40
2023/04/10 13:08:21;;;;;;;4.45;1.80;;;;;;;;;;4964495;28;20467;-40
2023/04/10 13:10:46;;;;;;;9.02;2.10;;;;;;;;;;4964156;28;20047;-44
2023/04/10 13:13:12;;;;;;;4.35;2.53;;;;;;;;;;4969228;28;20128;-40
2023/04/10 13:15:39;;;;;;;3.08;2.45;;;;;;;;;;4964405;28;20050;-41
2023/04/10 13:18:09;;;;;;;2.60;1.75;;;;;;;;;;4964944;28;20442;-40
2023/04/10 13:20:36;;;;;;;3.35;2.10;;;;;;;;;;4965876;28;20487;-40
2023/04/10 13:23:02;;;;;;;3.55;1.90;;;;;;;;;;4963099;28;20059;-41
2023/04/10 13:25:32;;;;;;;5.63;2.47;;;;;;;;;;4959379;28;20050;-40
2023/04/10 13:27:57;;;;;;;2.67;1.60;;;;;;;;;;4948862;28;20027;-41
2023/04/10 13:30:23;;;;;;;6.45;1.90;;;;;;;;;;4952198;28;20042;-40
2023/04/10 13:32:48;;;;;;;6.97;1.73;;;;;;;;;;4963007;28;20490;-40
2023/04/10 13:35:14;;;;;;;2.83;2.10;;;;;;;;;;4965239;28;20058;-41
2023/04/10 13:37:39;;;;;;;4.80;1.90;;;;;;;;;;4967427;28;20030;-40
2023/04/10 13:40:05;;;;;;;6.78;1.73;;;;;;;;;;4965566;28;20045;-40
2023/04/10 13:42:31;;;;;;;7.45;2.15;;;;;;;;;;4963052;28;20030;-40
2023/04/10 13:44:56;;;;;;;2.97;1.55;;;;;;;;;;4964262;28;20033;-40
2023/04/10 13:47:21;;;;;;;1.80;1.70;;;;;;;;;;4967210;28;20049;-40
2023/04/10 13:49:47;;;;;;;3.33;1.80;;;;;;;;;;4961946;28;20034;-42
2023/04/10 13:52:12;;;;;;;6.82;2.33;;;;;;;;;;4964818;28;20435;-40
2023/04/10 13:54:37;;;;;;;7.97;2.20;;;;;;;;;;4961794;28;20059;-40
2023/04/10 13:57:03;;;;;;;4.45;1.65;;;;;;;;;;4962377;28;20043;-40
2023/04/10 13:59:28;;;;;;;4.65;2.05;;;;;;;;;;4967420;28;21062;-40
2023/04/10 14:01:53;;;;;;;4.78;2.10;;;;;;;;;;4967146;28;20038;-40
2023/04/10 14:04:19;;;;;;;5.00;2.10;;;;;;;;;;4967801;28;20395;-40
2023/04/10 14:06:44;;;;;;;8.77;1.80;;;;;;;;;;4950775;28;20054;-41
2023/04/10 14:09:10;;;;;;;5.55;1.88;;;;;;;;;;4948980;28;20373;-41
2023/04/10 14:11:35;;;;;;;2.97;1.70;;;;;;;;;;4957116;28;20124;-40
2023/04/10 14:14:00;;;;;;;3.78;2.05;;;;;;;;;;4964485;28;20102;-41
2023/04/10 14:16:26;;;;;;;5.85;2.42;;;;;;;;;;4966922;28;20046;-40
2023/04/10 14:18:51;;;;;;;3.05;1.52;;;;;;;;;;4963010;28;20471;-40
2023/04/10 14:21:16;;;;;;;7.57;2.90;;;;;;;;;;4961278;28;20031;-40
2023/04/10 14:23:42;;;;;;;7.50;2.53;;;;;;;;;;4964536;28;20089;-40
2023/04/10 14:26:07;;;;;;;3.80;1.95;;;;;;;;;;4962275;28;20662;-40
2023/04/10 14:28:33;;;;;;;5.47;1.95;;;;;;;;;;4962337;28;20126;-40
2023/04/10 14:30:58;;;;;;;6.53;1.88;;;;;;;;;;4965649;28;20130;-40
2023/04/10 14:33:24;;;;;;;7.13;2.20;;;;;;;;;;4966842;28;20031;-40
2023/04/10 14:35:49;;;;;;;5.03;2.13;;;;;;;;;;4958113;28;20087;-44
2023/04/10 14:38:15;;;;;;;2.72;1.70;;;;;;;;;;4947457;28;20155;-40
2023/04/10 14:40:41;;;;;;;6.35;2.22;;;;;;;;;;4951756;28;20130;-40
2023/04/10 14:43:07;;;;;;;3.03;1.70;;;;;;;;;;4947171;28;20468;-41
2023/04/10 14:45:32;;;;;;;6.05;2.25;;;;;;;;;;4949484;28;20051;-39